sensor_id;sensor_type;location;lat;lon;timestamp;P1;durP1;ratioP1;P2;durP2;ratioP2
13311;SDS011;34033;48.672;9.376;2023-03-04T00:01:10;20.20;;;12.43;;
13311;SDS011;34033;48.672;9.376;2023-03-04T00:03:35;22.50;;;12.10;;
13311;SDS011;34033;48.672;9.376;2023-03-04T00:06:01;20.80;;;12.90;;
13311;SDS011;34033;48.672;9.376;2023-03-04T00:08:26;27.73;;;12.97;;
13311;SDS011;34033;48.672;9.376;2023-03-04T00:10:52;22.57;;;12.70;;
13311;SDS011;34033;48.672;9.376;2023-03-04T00:13:18;20.73;;;12.43;;
13311;SDS011;34033;48.672;9.376;2023-03-04T00:15:45;25.00;;;12.50;;
13311;SDS011;34033;48.672;9.376;2023-03-04T00:18:10;19.43;;;11.87;;
13311;SDS011;34033;48.672;9.376;2023-03-04T00:20:35;22.33;;;11.77;;
13311;SDS011;34033;48.672;9.376;2023-03-04T00:23:01;21.03;;;11.73;;
13311;SDS011;34033;48.672;9.376;2023-03-04T00:25:26;21.70;;;11.67;;
13311;SDS011;34033;48.672;9.376;2023-03-04T00:27:51;19.60;;;11.87;;
13311;SDS011;34033;48.672;9.376;2023-03-04T00:30:17;23.53;;;12.87;;
13311;SDS011;34033;48.672;9.376;2023-03-04T00:32:42;21.73;;;12.20;;
13311;SDS011;34033;48.672;9.376;2023-03-04T00:35:08;20.10;;;12.30;;
13311;SDS011;34033;48.672;9.376;2023-03-04T00:37:33;23.87;;;13.20;;
13311;SDS011;34033;48.672;9.376;2023-03-04T00:39:58;21.97;;;11.40;;
13311;SDS011;34033;48.672;9.376;2023-03-04T00:42:24;16.60;;;9.70;;
13311;SDS011;34033;48.672;9.376;2023-03-04T00:44:49;19.97;;;10.67;;
13311;SDS011;34033;48.672;9.376;2023-03-04T00:47:15;19.47;;;10.93;;
13311;SDS011;34033;48.672;9.376;2023-03-04T00:49:40;15.00;;;9.87;;
13311;SDS011;34033;48.672;9.376;2023-03-04T00:52:06;20.27;;;11.73;;
13311;SDS011;34033;48.672;9.376;2023-03-04T00:54:31;18.57;;;10.37;;
13311;SDS011;34033;48.672;9.376;2023-03-04T00:56:57;18.30;;;11.53;;
13311;SDS011;34033;48.672;9.376;2023-03-04T00:59:22;18.47;;;10.53;;
13311;SDS011;34033;48.672;9.376;2023-03-04T01:01:47;21.90;;;11.53;;
13311;SDS011;34033;48.672;9.376;2023-03-04T01:04:13;15.60;;;10.37;;
13311;SDS011;34033;48.672;9.376;2023-03-04T01:06:38;17.70;;;10.10;;
13311;SDS011;34033;48.672;9.376;2023-03-04T01:09:03;20.47;;;10.73;;
13311;SDS011;34033;48.672;9.376;2023-03-04T01:11:29;18.53;;;9.80;;
13311;SDS011;34033;48.672;9.376;2023-03-04T01:13:54;14.23;;;8.83;;
13311;SDS011;34033;48.672;9.376;2023-03-04T01:16:19;15.77;;;9.37;;
13311;SDS011;34033;48.672;9.376;2023-03-04T01:18:45;14.77;;;9.57;;
13311;SDS011;34033;48.672;9.376;2023-03-04T01:21:11;15.53;;;9.33;;
13311;SDS011;34033;48.672;9.376;2023-03-04T01:23:36;16.53;;;9.60;;
13311;SDS011;34033;48.672;9.376;2023-03-04T01:26:02;15.37;;;9.40;;
13311;SDS011;34033;48.672;9.376;2023-03-04T01:28:28;15.33;;;9.93;;
13311;SDS011;34033;48.672;9.376;2023-03-04T01:30:53;15.97;;;9.97;;
13311;SDS011;34033;48.672;9.376;2023-03-04T01:33:19;17.80;;;9.83;;
13311;SDS011;34033;48.672;9.376;2023-03-04T01:35:44;13.40;;;8.63;;
13311;SDS011;34033;48.672;9.376;2023-03-04T01:38:09;20.50;;;10.50;;
13311;SDS011;34033;48.672;9.376;2023-03-04T01:40:36;15.50;;;9.13;;
13311;SDS011;34033;48.672;9.376;2023-03-04T01:43:02;18.23;;;10.13;;
13311;SDS011;34033;48.672;9.376;2023-03-04T01:45:28;17.77;;;10.63;;
13311;SDS011;34033;48.672;9.376;2023-03-04T01:47:56;15.10;;;9.73;;
13311;SDS011;34033;48.672;9.376;2023-03-04T01:50:39;16.03;;;9.93;;
13311;SDS011;34033;48.672;9.376;2023-03-04T01:53:05;15.77;;;9.63;;
13311;SDS011;34033;48.672;9.376;2023-03-04T01:55:30;16.67;;;10.23;;
13311;SDS011;34033;48.672;9.376;2023-03-04T01:57:56;17.13;;;9.50;;
13311;SDS011;34033;48.672;9.376;2023-03-04T02:02:51;16.83;;;10.57;;
13311;SDS011;34033;48.672;9.376;2023-03-04T02:05:18;17.97;;;10.17;;
13311;SDS011;34033;48.672;9.376;2023-03-04T02:07:45;17.17;;;10.17;;
13311;SDS011;34033;48.672;9.376;2023-03-04T02:10:11;16.17;;;9.93;;
13311;SDS011;34033;48.672;9.376;2023-03-04T02:12:37;16.60;;;10.03;;
13311;SDS011;34033;48.672;9.376;2023-03-04T02:15:03;18.27;;;10.10;;
13311;SDS011;34033;48.672;9.376;2023-03-04T02:17:30;18.63;;;9.87;;
13311;SDS011;34033;48.672;9.376;2023-03-04T02:20:02;18.27;;;9.07;;
13311;SDS011;34033;48.672;9.376;2023-03-04T02:22:29;17.07;;;9.37;;
13311;SDS011;34033;48.672;9.376;2023-03-04T02:25:02;16.53;;;9.40;;
13311;SDS011;34033;48.672;9.376;2023-03-04T02:27:35;18.80;;;9.93;;
13311;SDS011;34033;48.672;9.376;2023-03-04T02:30:00;19.20;;;10.77;;
13311;SDS011;34033;48.672;9.376;2023-03-04T02:32:25;13.43;;;8.70;;
13311;SDS011;34033;48.672;9.376;2023-03-04T02:34:51;14.43;;;9.20;;
13311;SDS011;34033;48.672;9.376;2023-03-04T02:37:17;17.23;;;10.07;;
13311;SDS011;34033;48.672;9.376;2023-03-04T02:39:44;14.27;;;9.30;;
13311;SDS011;34033;48.672;9.376;2023-03-04T02:42:12;12.33;;;8.50;;
13311;SDS011;34033;48.672;9.376;2023-03-04T02:44:41;17.03;;;9.77;;
13311;SDS011;34033;48.672;9.376;2023-03-04T02:47:10;15.20;;;8.97;;
13311;SDS011;34033;48.672;9.376;2023-03-04T02:49:38;16.90;;;10.03;;
13311;SDS011;34033;48.672;9.376;2023-03-04T02:52:06;17.00;;;9.70;;
13311;SDS011;34033;48.672;9.376;2023-03-04T02:54:37;15.87;;;9.17;;
13311;SDS011;34033;48.672;9.376;2023-03-04T02:57:05;13.63;;;8.77;;
13311;SDS011;34033;48.672;9.376;2023-03-04T02:59:32;16.37;;;9.17;;
13311;SDS011;34033;48.672;9.376;2023-03-04T03:01:57;15.43;;;9.53;;
13311;SDS011;34033;48.672;9.376;2023-03-04T03:04:23;16.77;;;9.83;;
13311;SDS011;34033;48.672;9.376;2023-03-04T03:06:49;16.47;;;9.70;;
13311;SDS011;34033;48.672;9.376;2023-03-04T03:09:15;17.40;;;9.30;;
13311;SDS011;34033;48.672;9.376;2023-03-04T03:11:41;17.77;;;9.73;;
13311;SDS011;34033;48.672;9.376;2023-03-04T03:14:07;20.00;;;10.00;;
13311;SDS011;34033;48.672;9.376;2023-03-04T03:16:32;16.90;;;9.50;;
13311;SDS011;34033;48.672;9.376;2023-03-04T03:18:58;15.57;;;9.57;;
13311;SDS011;34033;48.672;9.376;2023-03-04T03:21:23;17.57;;;9.57;;
13311;SDS011;34033;48.672;9.376;2023-03-04T03:23:49;15.20;;;9.37;;
13311;SDS011;34033;48.672;9.376;2023-03-04T03:26:14;15.57;;;9.47;;
13311;SDS011;34033;48.672;9.376;2023-03-04T03:28:40;15.07;;;8.83;;
13311;SDS011;34033;48.672;9.376;2023-03-04T03:31:06;15.80;;;9.50;;
13311;SDS011;34033;48.672;9.376;2023-03-04T03:33:31;15.67;;;9.60;;
13311;SDS011;34033;48.672;9.376;2023-03-04T03:35:57;16.17;;;9.73;;
13311;SDS011;34033;48.672;9.376;2023-03-04T03:38:22;14.93;;;9.40;;
13311;SDS011;34033;48.672;9.376;2023-03-04T03:40:47;15.17;;;9.10;;
13311;SDS011;34033;48.672;9.376;2023-03-04T03:43:13;18.00;;;9.57;;
13311;SDS011;34033;48.672;9.376;2023-03-04T03:45:38;16.77;;;9.13;;
13311;SDS011;34033;48.672;9.376;2023-03-04T03:48:04;17.63;;;9.53;;
13311;SDS011;34033;48.672;9.376;2023-03-04T03:50:29;16.83;;;9.80;;
13311;SDS011;34033;48.672;9.376;2023-03-04T03:52:54;17.00;;;9.90;;
13311;SDS011;34033;48.672;9.376;2023-03-04T03:55:20;16.00;;;9.40;;
13311;SDS011;34033;48.672;9.376;2023-03-04T03:57:46;18.67;;;9.60;;
13311;SDS011;34033;48.672;9.376;2023-03-04T04:00:11;14.30;;;8.57;;
13311;SDS011;34033;48.672;9.376;2023-03-04T04:02:37;14.93;;;9.80;;
13311;SDS011;34033;48.672;9.376;2023-03-04T04:05:03;13.07;;;9.07;;
13311;SDS011;34033;48.672;9.376;2023-03-04T04:07:30;18.80;;;9.63;;
13311;SDS011;34033;48.672;9.376;2023-03-04T04:09:56;15.70;;;9.30;;
13311;SDS011;34033;48.672;9.376;2023-03-04T04:12:21;14.07;;;8.97;;
13311;SDS011;34033;48.672;9.376;2023-03-04T04:14:47;16.20;;;9.03;;
13311;SDS011;34033;48.672;9.376;2023-03-04T04:17:12;15.47;;;8.87;;
13311;SDS011;34033;48.672;9.376;2023-03-04T04:19:38;17.57;;;8.63;;
13311;SDS011;34033;48.672;9.376;2023-03-04T04:22:04;15.67;;;9.70;;
13311;SDS011;34033;48.672;9.376;2023-03-04T04:24:31;13.73;;;8.37;;
13311;SDS011;34033;48.672;9.376;2023-03-04T04:26:56;16.53;;;9.87;;
13311;SDS011;34033;48.672;9.376;2023-03-04T04:29:22;17.63;;;9.63;;
13311;SDS011;34033;48.672;9.376;2023-03-04T04:31:47;16.33;;;10.00;;
13311;SDS011;34033;48.672;9.376;2023-03-04T04:34:13;16.40;;;9.60;;
13311;SDS011;34033;48.672;9.376;2023-03-04T04:36:38;18.33;;;9.90;;
13311;SDS011;34033;48.672;9.376;2023-03-04T04:39:04;15.30;;;8.90;;
13311;SDS011;34033;48.672;9.376;2023-03-04T04:41:36;15.83;;;9.00;;
13311;SDS011;34033;48.672;9.376;2023-03-04T04:44:04;14.80;;;9.57;;
13311;SDS011;34033;48.672;9.376;2023-03-04T04:46:29;15.90;;;9.00;;
13311;SDS011;34033;48.672;9.376;2023-03-04T04:48:55;14.07;;;9.37;;
13311;SDS011;34033;48.672;9.376;2023-03-04T04:51:20;14.53;;;9.50;;
13311;SDS011;34033;48.672;9.376;2023-03-04T04:53:46;12.80;;;8.83;;
13311;SDS011;34033;48.672;9.376;2023-03-04T04:56:16;15.70;;;9.13;;
13311;SDS011;34033;48.672;9.376;2023-03-04T04:58:44;14.63;;;9.47;;
13311;SDS011;34033;48.672;9.376;2023-03-04T05:01:10;15.30;;;9.23;;
13311;SDS011;34033;48.672;9.376;2023-03-04T05:03:36;16.23;;;9.33;;
13311;SDS011;34033;48.672;9.376;2023-03-04T05:06:03;17.03;;;9.10;;
13311;SDS011;34033;48.672;9.376;2023-03-04T05:08:30;19.80;;;10.13;;
13311;SDS011;34033;48.672;9.376;2023-03-04T05:10:55;15.10;;;9.30;;
13311;SDS011;34033;48.672;9.376;2023-03-04T05:13:21;16.57;;;9.17;;
13311;SDS011;34033;48.672;9.376;2023-03-04T05:15:46;16.27;;;8.70;;
13311;SDS011;34033;48.672;9.376;2023-03-04T05:18:12;14.77;;;8.80;;
13311;SDS011;34033;48.672;9.376;2023-03-04T05:20:38;18.07;;;10.30;;
13311;SDS011;34033;48.672;9.376;2023-03-04T05:23:03;19.00;;;9.80;;
13311;SDS011;34033;48.672;9.376;2023-03-04T05:25:28;16.73;;;9.27;;
13311;SDS011;34033;48.672;9.376;2023-03-04T05:27:54;14.63;;;8.43;;
13311;SDS011;34033;48.672;9.376;2023-03-04T05:30:19;17.90;;;9.77;;
13311;SDS011;34033;48.672;9.376;2023-03-04T05:32:45;15.57;;;8.33;;
13311;SDS011;34033;48.672;9.376;2023-03-04T05:35:10;16.07;;;9.13;;
13311;SDS011;34033;48.672;9.376;2023-03-04T05:37:35;14.77;;;8.60;;
13311;SDS011;34033;48.672;9.376;2023-03-04T05:40:01;13.97;;;8.27;;
13311;SDS011;34033;48.672;9.376;2023-03-04T05:42:26;13.50;;;8.10;;
13311;SDS011;34033;48.672;9.376;2023-03-04T05:44:51;15.17;;;8.67;;
13311;SDS011;34033;48.672;9.376;2023-03-04T05:47:17;16.47;;;9.07;;
13311;SDS011;34033;48.672;9.376;2023-03-04T05:49:42;16.07;;;9.40;;
13311;SDS011;34033;48.672;9.376;2023-03-04T05:52:08;17.07;;;8.63;;
13311;SDS011;34033;48.672;9.376;2023-03-04T05:54:34;15.10;;;8.97;;
13311;SDS011;34033;48.672;9.376;2023-03-04T05:56:59;17.03;;;8.80;;
13311;SDS011;34033;48.672;9.376;2023-03-04T05:59:24;14.87;;;9.27;;
13311;SDS011;34033;48.672;9.376;2023-03-04T06:01:50;14.43;;;8.63;;
13311;SDS011;34033;48.672;9.376;2023-03-04T06:04:15;14.20;;;8.00;;
13311;SDS011;34033;48.672;9.376;2023-03-04T06:06:40;13.87;;;7.77;;
13311;SDS011;34033;48.672;9.376;2023-03-04T06:09:06;14.90;;;7.83;;
13311;SDS011;34033;48.672;9.376;2023-03-04T06:11:31;18.53;;;9.07;;
13311;SDS011;34033;48.672;9.376;2023-03-04T06:13:56;15.93;;;8.30;;
13311;SDS011;34033;48.672;9.376;2023-03-04T06:16:22;11.63;;;8.10;;
13311;SDS011;34033;48.672;9.376;2023-03-04T06:18:47;15.30;;;7.97;;
13311;SDS011;34033;48.672;9.376;2023-03-04T06:21:12;13.70;;;7.70;;
13311;SDS011;34033;48.672;9.376;2023-03-04T06:23:38;15.97;;;9.17;;
13311;SDS011;34033;48.672;9.376;2023-03-04T06:26:03;16.50;;;8.70;;
13311;SDS011;34033;48.672;9.376;2023-03-04T06:28:33;13.77;;;8.27;;
13311;SDS011;34033;48.672;9.376;2023-03-04T06:30:58;14.13;;;7.73;;
13311;SDS011;34033;48.672;9.376;2023-03-04T06:33:23;18.73;;;8.93;;
13311;SDS011;34033;48.672;9.376;2023-03-04T06:35:52;14.33;;;8.67;;
13311;SDS011;34033;48.672;9.376;2023-03-04T06:38:18;16.30;;;8.33;;
13311;SDS011;34033;48.672;9.376;2023-03-04T06:40:44;18.30;;;9.13;;
13311;SDS011;34033;48.672;9.376;2023-03-04T06:43:09;13.97;;;8.83;;
13311;SDS011;34033;48.672;9.376;2023-03-04T06:45:36;14.60;;;8.37;;
13311;SDS011;34033;48.672;9.376;2023-03-04T06:48:02;14.97;;;9.00;;
13311;SDS011;34033;48.672;9.376;2023-03-04T06:50:28;17.87;;;9.23;;
13311;SDS011;34033;48.672;9.376;2023-03-04T06:52:55;14.67;;;8.83;;
13311;SDS011;34033;48.672;9.376;2023-03-04T06:55:21;15.77;;;9.10;;
13311;SDS011;34033;48.672;9.376;2023-03-04T06:57:46;15.67;;;9.53;;
13311;SDS011;34033;48.672;9.376;2023-03-04T07:00:12;18.40;;;10.30;;
13311;SDS011;34033;48.672;9.376;2023-03-04T07:02:38;15.20;;;9.10;;
13311;SDS011;34033;48.672;9.376;2023-03-04T07:05:03;16.13;;;9.67;;
13311;SDS011;34033;48.672;9.376;2023-03-04T07:07:29;15.97;;;10.30;;
13311;SDS011;34033;48.672;9.376;2023-03-04T07:09:54;17.13;;;9.30;;
13311;SDS011;34033;48.672;9.376;2023-03-04T07:12:19;17.13;;;10.43;;
13311;SDS011;34033;48.672;9.376;2023-03-04T07:14:45;17.87;;;10.57;;
13311;SDS011;34033;48.672;9.376;2023-03-04T07:17:10;15.47;;;9.50;;
13311;SDS011;34033;48.672;9.376;2023-03-04T07:19:35;19.43;;;9.07;;
13311;SDS011;34033;48.672;9.376;2023-03-04T07:22:01;18.77;;;9.63;;
13311;SDS011;34033;48.672;9.376;2023-03-04T07:24:26;13.27;;;8.27;;
13311;SDS011;34033;48.672;9.376;2023-03-04T07:26:51;15.73;;;9.80;;
13311;SDS011;34033;48.672;9.376;2023-03-04T07:29:17;14.37;;;9.10;;
13311;SDS011;34033;48.672;9.376;2023-03-04T07:31:42;16.87;;;9.90;;
13311;SDS011;34033;48.672;9.376;2023-03-04T07:34:09;17.53;;;10.23;;
13311;SDS011;34033;48.672;9.376;2023-03-04T07:36:37;21.53;;;11.03;;
13311;SDS011;34033;48.672;9.376;2023-03-04T07:39:02;15.60;;;10.20;;
13311;SDS011;34033;48.672;9.376;2023-03-04T07:41:28;16.20;;;9.57;;
13311;SDS011;34033;48.672;9.376;2023-03-04T07:43:55;17.43;;;9.63;;
13311;SDS011;34033;48.672;9.376;2023-03-04T07:46:22;18.20;;;10.20;;
13311;SDS011;34033;48.672;9.376;2023-03-04T07:48:47;15.73;;;9.43;;
13311;SDS011;34033;48.672;9.376;2023-03-04T07:51:17;21.80;;;11.23;;
13311;SDS011;34033;48.672;9.376;2023-03-04T07:53:45;16.30;;;9.20;;
13311;SDS011;34033;48.672;9.376;2023-03-04T07:56:13;18.17;;;9.43;;
13311;SDS011;34033;48.672;9.376;2023-03-04T07:58:40;14.40;;;8.00;;
13311;SDS011;34033;48.672;9.376;2023-03-04T08:01:12;12.80;;;8.23;;
13311;SDS011;34033;48.672;9.376;2023-03-04T08:03:39;13.83;;;8.43;;
13311;SDS011;34033;48.672;9.376;2023-03-04T08:06:06;15.87;;;8.57;;
13311;SDS011;34033;48.672;9.376;2023-03-04T08:08:33;12.00;;;7.73;;
13311;SDS011;34033;48.672;9.376;2023-03-04T08:10:59;13.83;;;7.83;;
13311;SDS011;34033;48.672;9.376;2023-03-04T08:13:24;12.67;;;7.17;;
13311;SDS011;34033;48.672;9.376;2023-03-04T08:15:50;13.33;;;8.07;;
13311;SDS011;34033;48.672;9.376;2023-03-04T08:18:15;11.97;;;7.63;;
13311;SDS011;34033;48.672;9.376;2023-03-04T08:20:41;17.97;;;7.90;;
13311;SDS011;34033;48.672;9.376;2023-03-04T08:23:08;12.47;;;7.77;;
13311;SDS011;34033;48.672;9.376;2023-03-04T08:25:37;13.73;;;7.93;;
13311;SDS011;34033;48.672;9.376;2023-03-04T08:28:04;15.67;;;7.30;;
13311;SDS011;34033;48.672;9.376;2023-03-04T08:30:29;10.17;;;6.47;;
13311;SDS011;34033;48.672;9.376;2023-03-04T08:32:55;11.60;;;6.73;;
13311;SDS011;34033;48.672;9.376;2023-03-04T08:35:20;11.47;;;6.60;;
13311;SDS011;34033;48.672;9.376;2023-03-04T08:37:45;13.13;;;7.00;;
13311;SDS011;34033;48.672;9.376;2023-03-04T08:40:11;15.20;;;6.70;;
13311;SDS011;34033;48.672;9.376;2023-03-04T08:42:37;16.53;;;8.20;;
13311;SDS011;34033;48.672;9.376;2023-03-04T08:45:02;12.47;;;7.43;;
13311;SDS011;34033;48.672;9.376;2023-03-04T08:47:28;12.53;;;7.10;;
13311;SDS011;34033;48.672;9.376;2023-03-04T08:49:53;11.27;;;6.63;;
13311;SDS011;34033;48.672;9.376;2023-03-04T08:52:18;11.20;;;7.37;;
13311;SDS011;34033;48.672;9.376;2023-03-04T08:54:44;11.77;;;6.63;;
13311;SDS011;34033;48.672;9.376;2023-03-04T08:57:09;10.00;;;6.33;;
13311;SDS011;34033;48.672;9.376;2023-03-04T08:59:34;10.77;;;6.33;;
13311;SDS011;34033;48.672;9.376;2023-03-04T09:02:00;9.90;;;5.97;;
13311;SDS011;34033;48.672;9.376;2023-03-04T09:04:25;12.73;;;7.53;;
13311;SDS011;34033;48.672;9.376;2023-03-04T09:06:50;10.80;;;6.77;;
13311;SDS011;34033;48.672;9.376;2023-03-04T09:09:16;12.63;;;6.73;;
13311;SDS011;34033;48.672;9.376;2023-03-04T09:11:42;11.17;;;7.03;;
13311;SDS011;34033;48.672;9.376;2023-03-04T09:14:07;14.27;;;6.77;;
13311;SDS011;34033;48.672;9.376;2023-03-04T09:16:32;14.47;;;7.03;;
13311;SDS011;34033;48.672;9.376;2023-03-04T09:18:58;13.27;;;7.00;;
13311;SDS011;34033;48.672;9.376;2023-03-04T09:21:24;14.10;;;7.53;;
13311;SDS011;34033;48.672;9.376;2023-03-04T09:23:49;13.40;;;6.97;;
13311;SDS011;34033;48.672;9.376;2023-03-04T09:26:22;10.57;;;6.87;;
13311;SDS011;34033;48.672;9.376;2023-03-04T09:28:53;12.37;;;6.97;;
13311;SDS011;34033;48.672;9.376;2023-03-04T09:31:21;10.60;;;5.87;;
13311;SDS011;34033;48.672;9.376;2023-03-04T09:33:47;9.57;;;5.43;;
13311;SDS011;34033;48.672;9.376;2023-03-04T09:36:12;11.33;;;6.13;;
13311;SDS011;34033;48.672;9.376;2023-03-04T09:38:38;10.73;;;6.37;;
13311;SDS011;34033;48.672;9.376;2023-03-04T09:41:06;10.83;;;6.67;;
13311;SDS011;34033;48.672;9.376;2023-03-04T09:43:34;14.03;;;6.57;;
13311;SDS011;34033;48.672;9.376;2023-03-04T09:46:07;11.63;;;6.77;;
13311;SDS011;34033;48.672;9.376;2023-03-04T09:48:47;12.10;;;6.87;;
13311;SDS011;34033;48.672;9.376;2023-03-04T09:51:20;13.00;;;6.43;;
13311;SDS011;34033;48.672;9.376;2023-03-04T09:56:30;12.03;;;6.70;;
13311;SDS011;34033;48.672;9.376;2023-03-04T10:01:36;8.17;;;5.37;;
13311;SDS011;34033;48.672;9.376;2023-03-04T10:04:13;9.77;;;5.90;;
13311;SDS011;34033;48.672;9.376;2023-03-04T10:06:41;9.77;;;5.87;;
13311;SDS011;34033;48.672;9.376;2023-03-04T10:09:38;9.17;;;5.67;;
13311;SDS011;34033;48.672;9.376;2023-03-04T10:12:11;10.80;;;6.00;;
13311;SDS011;34033;48.672;9.376;2023-03-04T10:14:42;10.33;;;6.40;;
13311;SDS011;34033;48.672;9.376;2023-03-04T10:17:23;11.90;;;6.80;;
13311;SDS011;34033;48.672;9.376;2023-03-04T10:22:44;9.73;;;6.57;;
13311;SDS011;34033;48.672;9.376;2023-03-04T10:27:59;13.73;;;6.83;;
13311;SDS011;34033;48.672;9.376;2023-03-04T10:31:11;10.20;;;5.53;;
13311;SDS011;34033;48.672;9.376;2023-03-04T10:33:21;11.37;;;6.00;;
13311;SDS011;34033;48.672;9.376;2023-03-04T10:35:52;9.90;;;6.43;;
13311;SDS011;34033;48.672;9.376;2023-03-04T10:38:38;7.50;;;4.90;;
13311;SDS011;34033;48.672;9.376;2023-03-04T10:41:12;9.60;;;6.10;;
13311;SDS011;34033;48.672;9.376;2023-03-04T10:43:39;10.93;;;5.97;;
13311;SDS011;34033;48.672;9.376;2023-03-04T10:46:09;8.93;;;6.03;;
13311;SDS011;34033;48.672;9.376;2023-03-04T10:48:36;9.70;;;6.00;;
13311;SDS011;34033;48.672;9.376;2023-03-04T10:51:23;11.60;;;6.03;;
13311;SDS011;34033;48.672;9.376;2023-03-04T10:53:52;12.17;;;5.93;;
13311;SDS011;34033;48.672;9.376;2023-03-04T11:01:56;12.77;;;6.07;;
13311;SDS011;34033;48.672;9.376;2023-03-04T11:04:23;11.00;;;5.77;;
13311;SDS011;34033;48.672;9.376;2023-03-04T11:06:50;9.77;;;6.03;;
13311;SDS011;34033;48.672;9.376;2023-03-04T11:09:29;8.97;;;5.90;;
13311;SDS011;34033;48.672;9.376;2023-03-04T11:11:58;8.90;;;5.53;;
13311;SDS011;34033;48.672;9.376;2023-03-04T11:14:25;10.27;;;6.53;;
13311;SDS011;34033;48.672;9.376;2023-03-04T11:16:58;14.50;;;6.33;;
13311;SDS011;34033;48.672;9.376;2023-03-04T11:19:35;11.17;;;5.97;;
13311;SDS011;34033;48.672;9.376;2023-03-04T11:22:03;11.80;;;6.60;;
13311;SDS011;34033;48.672;9.376;2023-03-04T11:24:30;11.00;;;7.17;;
13311;SDS011;34033;48.672;9.376;2023-03-04T11:27:20;9.30;;;6.27;;
13311;SDS011;34033;48.672;9.376;2023-03-04T11:29:59;11.50;;;6.40;;
13311;SDS011;34033;48.672;9.376;2023-03-04T11:32:42;11.27;;;7.63;;
13311;SDS011;34033;48.672;9.376;2023-03-04T11:38:31;9.73;;;6.50;;
13311;SDS011;34033;48.672;9.376;2023-03-04T11:40:43;10.77;;;6.30;;
13311;SDS011;34033;48.672;9.376;2023-03-04T11:43:17;12.90;;;6.67;;
13311;SDS011;34033;48.672;9.376;2023-03-04T11:51:37;12.10;;;7.70;;
13311;SDS011;34033;48.672;9.376;2023-03-04T11:54:15;12.27;;;7.70;;
13311;SDS011;34033;48.672;9.376;2023-03-04T11:56:51;11.73;;;7.03;;
13311;SDS011;34033;48.672;9.376;2023-03-04T12:02:22;10.97;;;7.43;;
13311;SDS011;34033;48.672;9.376;2023-03-04T12:05:02;10.47;;;7.17;;
13311;SDS011;34033;48.672;9.376;2023-03-04T12:48:13;13.73;;;8.87;;
13311;SDS011;34033;48.672;9.376;2023-03-04T12:59:15;14.97;;;9.30;;
13311;SDS011;34033;48.672;9.376;2023-03-04T13:01:48;12.50;;;8.00;;
13311;SDS011;34033;48.672;9.376;2023-03-04T13:04:34;13.23;;;8.97;;
13311;SDS011;34033;48.672;9.376;2023-03-04T13:10:09;15.67;;;9.97;;
13311;SDS011;34033;48.672;9.376;2023-03-04T13:12:45;14.17;;;9.17;;
13311;SDS011;34033;48.672;9.376;2023-03-04T13:17:42;16.27;;;10.27;;
13311;SDS011;34033;48.672;9.376;2023-03-04T13:20:19;15.57;;;9.37;;
13311;SDS011;34033;48.672;9.376;2023-03-04T13:22:59;17.00;;;10.37;;
13311;SDS011;34033;48.672;9.376;2023-03-04T13:59:31;20.03;;;10.27;;
13311;SDS011;34033;48.672;9.376;2023-03-04T14:02:13;15.37;;;9.60;;
13311;SDS011;34033;48.672;9.376;2023-03-04T14:07:33;16.80;;;10.27;;
13311;SDS011;34033;48.672;9.376;2023-03-04T14:12:36;18.53;;;10.77;;
13311;SDS011;34033;48.672;9.376;2023-03-04T14:15:14;18.27;;;10.43;;
13311;SDS011;34033;48.672;9.376;2023-03-04T14:17:50;18.57;;;11.13;;
13311;SDS011;34033;48.672;9.376;2023-03-04T14:20:26;20.37;;;10.40;;
13311;SDS011;34033;48.672;9.376;2023-03-04T14:22:53;19.60;;;10.13;;
13311;SDS011;34033;48.672;9.376;2023-03-04T14:27:49;16.00;;;10.20;;
13311;SDS011;34033;48.672;9.376;2023-03-04T14:30:19;18.67;;;10.13;;
13311;SDS011;34033;48.672;9.376;2023-03-04T14:32:51;15.10;;;9.70;;
13311;SDS011;34033;48.672;9.376;2023-03-04T14:35:18;17.37;;;9.77;;
13311;SDS011;34033;48.672;9.376;2023-03-04T14:37:59;15.80;;;9.60;;
13311;SDS011;34033;48.672;9.376;2023-03-04T14:40:28;14.10;;;8.37;;
13311;SDS011;34033;48.672;9.376;2023-03-04T14:42:59;12.43;;;7.93;;
13311;SDS011;34033;48.672;9.376;2023-03-04T14:45:29;14.13;;;8.50;;
13311;SDS011;34033;48.672;9.376;2023-03-04T14:47:56;11.40;;;7.50;;
13311;SDS011;34033;48.672;9.376;2023-03-04T14:50:28;12.50;;;7.70;;
13311;SDS011;34033;48.672;9.376;2023-03-04T14:53:11;13.37;;;8.17;;
13311;SDS011;34033;48.672;9.376;2023-03-04T14:55:39;12.97;;;6.20;;
13311;SDS011;34033;48.672;9.376;2023-03-04T14:58:29;10.30;;;6.27;;
13311;SDS011;34033;48.672;9.376;2023-03-04T15:01:06;10.97;;;6.13;;
13311;SDS011;34033;48.672;9.376;2023-03-04T15:03:55;9.00;;;5.80;;
13311;SDS011;34033;48.672;9.376;2023-03-04T15:06:25;9.70;;;5.80;;
13311;SDS011;34033;48.672;9.376;2023-03-04T15:11:29;8.50;;;5.77;;
13311;SDS011;34033;48.672;9.376;2023-03-04T15:13:58;10.80;;;6.20;;
13311;SDS011;34033;48.672;9.376;2023-03-04T15:16:25;6.87;;;4.93;;
13311;SDS011;34033;48.672;9.376;2023-03-04T15:21:48;8.17;;;5.00;;
13311;SDS011;34033;48.672;9.376;2023-03-04T15:24:13;13.87;;;6.13;;
13311;SDS011;34033;48.672;9.376;2023-03-04T15:26:39;9.00;;;5.63;;
13311;SDS011;34033;48.672;9.376;2023-03-04T15:29:13;11.03;;;6.00;;
13311;SDS011;34033;48.672;9.376;2023-03-04T15:31:40;10.20;;;5.27;;
13311;SDS011;34033;48.672;9.376;2023-03-04T15:34:11;12.93;;;5.80;;
13311;SDS011;34033;48.672;9.376;2023-03-04T15:36:38;12.63;;;6.53;;
13311;SDS011;34033;48.672;9.376;2023-03-04T15:39:04;10.67;;;5.90;;
13311;SDS011;34033;48.672;9.376;2023-03-04T15:41:29;10.23;;;6.80;;
13311;SDS011;34033;48.672;9.376;2023-03-04T15:43:55;12.53;;;7.30;;
13311;SDS011;34033;48.672;9.376;2023-03-04T15:46:21;11.67;;;6.10;;
13311;SDS011;34033;48.672;9.376;2023-03-04T15:48:46;14.20;;;6.30;;
13311;SDS011;34033;48.672;9.376;2023-03-04T15:51:17;15.90;;;6.97;;
13311;SDS011;34033;48.672;9.376;2023-03-04T15:53:52;12.63;;;6.23;;
13311;SDS011;34033;48.672;9.376;2023-03-04T15:56:22;11.80;;;6.40;;
13311;SDS011;34033;48.672;9.376;2023-03-04T15:58:54;12.10;;;6.83;;
13311;SDS011;34033;48.672;9.376;2023-03-04T16:01:20;10.33;;;6.93;;
13311;SDS011;34033;48.672;9.376;2023-03-04T16:03:46;11.70;;;6.50;;
13311;SDS011;34033;48.672;9.376;2023-03-04T16:06:13;11.63;;;6.07;;
13311;SDS011;34033;48.672;9.376;2023-03-04T16:08:42;13.50;;;6.20;;
13311;SDS011;34033;48.672;9.376;2023-03-04T16:11:22;10.97;;;6.17;;
13311;SDS011;34033;48.672;9.376;2023-03-04T16:13:49;13.90;;;5.93;;
13311;SDS011;34033;48.672;9.376;2023-03-04T16:16:15;7.80;;;5.50;;
13311;SDS011;34033;48.672;9.376;2023-03-04T16:18:41;11.20;;;6.97;;
13311;SDS011;34033;48.672;9.376;2023-03-04T16:21:09;10.83;;;6.43;;
13311;SDS011;34033;48.672;9.376;2023-03-04T16:23:42;11.80;;;6.37;;
13311;SDS011;34033;48.672;9.376;2023-03-04T16:26:14;11.17;;;6.30;;
13311;SDS011;34033;48.672;9.376;2023-03-04T16:28:42;10.93;;;6.37;;
13311;SDS011;34033;48.672;9.376;2023-03-04T16:31:08;12.17;;;5.77;;
13311;SDS011;34033;48.672;9.376;2023-03-04T16:33:35;8.33;;;5.40;;
13311;SDS011;34033;48.672;9.376;2023-03-04T16:36:00;10.90;;;6.73;;
13311;SDS011;34033;48.672;9.376;2023-03-04T16:38:29;13.27;;;7.23;;
13311;SDS011;34033;48.672;9.376;2023-03-04T16:40:55;13.60;;;6.90;;
13311;SDS011;34033;48.672;9.376;2023-03-04T16:43:22;14.30;;;7.57;;
13311;SDS011;34033;48.672;9.376;2023-03-04T16:45:48;9.37;;;6.13;;
13311;SDS011;34033;48.672;9.376;2023-03-04T16:48:14;9.60;;;5.53;;
13311;SDS011;34033;48.672;9.376;2023-03-04T16:50:40;8.50;;;5.90;;